Time;durP1;ratioP1;P1;durP2;ratioP2;P2;SDS_P1;SDS_P2;PMS_P1;PMS_P2;Temp;Humidity;BMP_temperature;BMP_pressure;BME280_temperature;BME280_humidity;BME280_pressure;Samples;Min_cycle;Max_cycle;Signal;HPM_P1;HPM_P2
2021/07/21 00:02:16;;;;;;;;;;;24.10;66.70;;;;;;5190589;28;19933;-60
2021/07/21 00:04:48;;;;;;;;;;;24.20;66.80;;;;;;5196794;28;19931;-59
2021/07/21 00:07:21;;;;;;;;;;;24.10;66.70;;;;;;5199476;28;19936;-60
2021/07/21 00:09:53;;;;;;;;;;;24.10;66.70;;;;;;5214947;28;19929;-60
2021/07/21 00:15:16;;;;;;;;;;;24.10;66.70;;;;;;5202531;28;19932;-60
2021/07/21 00:17:58;;;;;;;;;;;24.10;66.70;;;;;;5202719;28;19925;-60
2021/07/21 00:20:31;;;;;;;;;;;24.10;66.70;;;;;;5203142;28;19955;-60
2021/07/21 00:23:03;;;;;;;;;;;24.10;66.70;;;;;;5205230;28;19929;-60
2021/07/21 00:25:35;;;;;;;;;;;24.10;66.80;;;;;;5204425;28;19921;-60
2021/07/21 00:28:08;;;;;;;;;;;24.10;66.80;;;;;;5216647;28;21131;-60
2021/07/21 00:30:40;;;;;;;;;;;24.10;66.80;;;;;;5203416;28;20867;-59
2021/07/21 00:33:18;;;;;;;;;;;24.10;66.80;;;;;;5218512;28;20281;-59
2021/07/21 00:35:51;;;;;;;;;;;24.00;66.70;;;;;;5183351;28;19924;-60
2021/07/21 00:38:25;;;;;;;;;;;24.00;66.70;;;;;;5215907;28;19932;-60
2021/07/21 00:40:57;;;;;;;;;;;24.00;66.70;;;;;;5200101;28;19929;-59
2021/07/21 00:43:30;;;;;;;;;;;24.00;66.60;;;;;;5184696;28;20284;-60
2021/07/21 00:46:02;;;;;;;;;;;24.00;66.60;;;;;;5194931;28;20413;-60
2021/07/21 00:48:35;;;;;;;;;;;24.00;66.60;;;;;;5183881;28;20392;-60
2021/07/21 00:51:09;;;;;;;;;;;24.00;66.60;;;;;;5201317;28;19931;-59
2021/07/21 00:53:42;;;;;;;;;;;24.00;66.60;;;;;;5211938;28;19924;-60
2021/07/21 00:56:18;;;;;;;;;;;24.00;66.60;;;;;;5199098;28;19925;-59
2021/07/21 00:58:51;;;;;;;;;;;24.00;66.60;;;;;;5183621;28;19925;-60
2021/07/21 01:01:23;;;;;;;;;;;24.00;66.50;;;;;;5200501;28;19925;-60
2021/07/21 01:03:58;;;;;;;;;;;24.00;66.50;;;;;;5201100;28;19925;-60
2021/07/21 01:06:32;;;;;;;;;;;23.90;66.50;;;;;;5187863;28;20377;-60
2021/07/21 01:09:06;;;;;;;;;;;23.90;66.40;;;;;;5184345;28;20289;-60
2021/07/21 01:12:00;;;;;;;;;;;23.90;66.40;;;;;;5190712;28;19927;-60
2021/07/21 01:14:42;;;;;;;;;;;23.90;66.40;;;;;;5187540;28;19925;-59
2021/07/21 01:17:18;;;;;;;;;;;23.90;66.30;;;;;;5198094;28;19928;-60
2021/07/21 01:20:10;;;;;;;;;;;23.90;66.30;;;;;;5182338;28;19925;-60
2021/07/21 01:22:47;;;;;;;;;;;23.90;66.30;;;;;;5173380;28;19936;-59
2021/07/21 01:25:33;;;;;;;;;;;23.90;66.20;;;;;;5188949;28;19929;-60
2021/07/21 01:28:13;;;;;;;;;;;23.90;66.20;;;;;;5185920;28;19935;-59
2021/07/21 01:30:54;;;;;;;;;;;23.90;66.20;;;;;;5186711;28;19920;-60
2021/07/21 01:33:27;;;;;;;;;;;23.80;66.20;;;;;;5171304;28;19932;-59
2021/07/21 01:36:02;;;;;;;;;;;23.80;66.20;;;;;;5203020;28;19932;-61
2021/07/21 01:38:42;;;;;;;;;;;23.80;66.20;;;;;;5184334;28;20381;-59
2021/07/21 01:41:19;;;;;;;;;;;23.80;66.10;;;;;;5185554;28;20010;-60
2021/07/21 01:43:56;;;;;;;;;;;23.80;66.20;;;;;;5198919;28;20471;-60
2021/07/21 01:46:29;;;;;;;;;;;23.80;66.20;;;;;;5205830;28;19932;-60
2021/07/21 01:49:01;;;;;;;;;;;23.80;66.20;;;;;;5202434;28;19929;-60
2021/07/21 01:51:41;;;;;;;;;;;23.80;66.10;;;;;;5190792;28;19936;-60
2021/07/21 01:54:14;;;;;;;;;;;23.80;66.10;;;;;;5188626;28;19924;-59
2021/07/21 01:57:10;;;;;;;;;;;23.70;66.10;;;;;;5205724;28;20290;-60
2021/07/21 01:59:50;;;;;;;;;;;23.80;66.10;;;;;;5174243;28;19931;-60
2021/07/21 02:02:49;;;;;;;;;;;23.80;66.00;;;;;;5198339;28;20270;-59
2021/07/21 02:05:30;;;;;;;;;;;23.70;65.90;;;;;;5195305;28;19920;-59
2021/07/21 02:08:03;;;;;;;;;;;23.70;65.90;;;;;;5200488;28;19935;-60
2021/07/21 02:10:36;;;;;;;;;;;23.70;65.80;;;;;;5194798;28;19929;-59
2021/07/21 02:13:13;;;;;;;;;;;23.70;65.90;;;;;;5200019;28;26454;-60
2021/07/21 02:15:55;;;;;;;;;;;23.70;65.80;;;;;;5176693;28;20305;-59
2021/07/21 02:18:29;;;;;;;;;;;23.70;65.80;;;;;;5195301;28;19925;-60
2021/07/21 02:21:03;;;;;;;;;;;23.70;65.80;;;;;;5179032;28;19928;-60
2021/07/21 02:23:37;;;;;;;;;;;23.70;65.80;;;;;;5196383;28;19925;-60
2021/07/21 02:26:28;;;;;;;;;;;23.70;65.80;;;;;;5204791;28;19925;-59
2021/07/21 02:29:04;;;;;;;;;;;23.70;65.80;;;;;;5194022;28;19925;-60
2021/07/21 02:32:05;;;;;;;;;;;23.70;65.80;;;;;;5193911;28;19932;-60
2021/07/21 02:34:38;;;;;;;;;;;23.70;66.00;;;;;;5199489;28;19924;-60
2021/07/21 02:37:13;;;;;;;;;;;23.70;65.90;;;;;;5201965;28;19925;-59
2021/07/21 02:39:50;;;;;;;;;;;23.60;65.80;;;;;;5206145;28;19928;-59
2021/07/21 02:42:22;;;;;;;;;;;23.70;65.90;;;;;;5203894;28;20300;-60
2021/07/21 02:44:55;;;;;;;;;;;23.60;65.90;;;;;;5204635;28;19928;-59
2021/07/21 02:47:28;;;;;;;;;;;23.60;65.80;;;;;;5189906;28;19924;-60
2021/07/21 02:50:05;;;;;;;;;;;23.60;65.70;;;;;;5200493;28;19928;-58
2021/07/21 02:52:41;;;;;;;;;;;23.60;65.70;;;;;;5215572;28;19924;-59
2021/07/21 02:55:32;;;;;;;;;;;23.60;65.60;;;;;;5196445;28;19935;-60
2021/07/21 02:58:12;;;;;;;;;;;23.60;65.50;;;;;;5196598;28;19935;-60
2021/07/21 03:00:55;;;;;;;;;;;23.60;65.60;;;;;;5181481;28;19925;-59
2021/07/21 03:03:32;;;;;;;;;;;23.60;65.50;;;;;;5200655;28;19929;-59
2021/07/21 03:06:06;;;;;;;;;;;23.60;65.50;;;;;;5199317;28;19924;-59
2021/07/21 03:08:58;;;;;;;;;;;23.60;65.40;;;;;;5177365;28;19925;-61
2021/07/21 03:11:38;;;;;;;;;;;23.60;65.40;;;;;;5212028;28;19924;-59
2021/07/21 03:14:11;;;;;;;;;;;23.60;65.30;;;;;;5199132;28;19947;-60
2021/07/21 03:16:51;;;;;;;;;;;23.60;65.30;;;;;;5200836;28;19925;-59
2021/07/21 03:19:31;;;;;;;;;;;23.50;65.20;;;;;;5187511;28;20389;-59
2021/07/21 03:22:08;;;;;;;;;;;23.50;65.10;;;;;;5199393;28;19932;-60
2021/07/21 03:24:53;;;;;;;;;;;23.50;65.00;;;;;;5169692;28;19932;-60
2021/07/21 03:27:34;;;;;;;;;;;23.50;65.00;;;;;;5200160;28;19921;-60
2021/07/21 03:30:39;;;;;;;;;;;23.50;65.10;;;;;;5169234;28;20286;-60
2021/07/21 03:33:18;;;;;;;;;;;23.50;65.10;;;;;;5179580;28;19939;-60
2021/07/21 03:36:04;;;;;;;;;;;23.50;65.00;;;;;;5183751;28;19928;-59
2021/07/21 03:38:57;;;;;;;;;;;23.50;64.90;;;;;;5201166;28;20186;-60
2021/07/21 03:41:41;;;;;;;;;;;23.50;65.00;;;;;;5180728;28;19928;-59
2021/07/21 03:44:16;;;;;;;;;;;23.50;65.00;;;;;;5201838;28;20527;-60
2021/07/21 03:46:52;;;;;;;;;;;23.50;64.80;;;;;;5184780;28;20309;-59
2021/07/21 03:49:27;;;;;;;;;;;23.50;64.70;;;;;;5205488;28;19925;-59
2021/07/21 03:52:19;;;;;;;;;;;23.50;64.80;;;;;;5205500;28;20310;-60
2021/07/21 03:55:11;;;;;;;;;;;23.50;64.70;;;;;;5203041;28;20007;-60
2021/07/21 03:57:56;;;;;;;;;;;23.50;64.70;;;;;;5188687;28;19929;-59
2021/07/21 04:00:38;;;;;;;;;;;23.50;64.60;;;;;;5191107;28;19924;-60
2021/07/21 04:03:13;;;;;;;;;;;23.40;64.50;;;;;;5211542;28;19931;-60
2021/07/21 04:05:57;;;;;;;;;;;23.40;64.50;;;;;;5204674;28;19921;-59
2021/07/21 04:08:35;;;;;;;;;;;23.40;64.50;;;;;;5184824;28;19940;-59
2021/07/21 04:11:12;;;;;;;;;;;23.40;64.60;;;;;;5197347;28;20392;-60
2021/07/21 04:13:44;;;;;;;;;;;23.40;64.40;;;;;;5199044;28;19924;-60
2021/07/21 04:16:26;;;;;;;;;;;23.40;64.40;;;;;;5192053;28;19935;-60
2021/07/21 04:19:00;;;;;;;;;;;23.40;64.50;;;;;;5195789;28;19929;-60
2021/07/21 04:21:32;;;;;;;;;;;23.40;64.50;;;;;;5199214;28;19936;-60
2021/07/21 04:24:09;;;;;;;;;;;23.40;64.40;;;;;;5182095;28;19940;-59
2021/07/21 04:26:42;;;;;;;;;;;23.40;64.50;;;;;;5196487;28;19986;-60
2021/07/21 04:29:21;;;;;;;;;;;23.40;64.90;;;;;;5187187;28;19932;-59
2021/07/21 04:31:54;;;;;;;;;;;23.40;65.50;;;;;;5186223;28;20376;-59
2021/07/21 04:34:30;;;;;;;;;;;23.40;65.80;;;;;;5179312;28;19929;-59
2021/07/21 04:37:03;;;;;;;;;;;23.40;66.00;;;;;;5189396;28;20282;-61
2021/07/21 04:40:02;;;;;;;;;;;23.40;66.90;;;;;;5189348;28;19925;-58
2021/07/21 04:42:53;;;;;;;;;;;23.40;66.40;;;;;;5181552;28;19928;-60
2021/07/21 04:45:27;;;;;;;;;;;23.40;66.60;;;;;;5189298;28;20823;-59
2021/07/21 04:47:59;;;;;;;;;;;23.40;66.60;;;;;;5208948;28;19929;-59
2021/07/21 04:50:44;;;;;;;;;;;23.40;66.80;;;;;;5185491;28;19929;-60
2021/07/21 04:53:18;;;;;;;;;;;23.40;66.80;;;;;;5175380;28;19928;-59
2021/07/21 04:55:50;;;;;;;;;;;23.40;67.00;;;;;;5207711;28;19925;-60
2021/07/21 04:58:23;;;;;;;;;;;23.40;67.20;;;;;;5187403;28;20019;-59
2021/07/21 05:01:10;;;;;;;;;;;23.40;67.20;;;;;;5176319;28;20312;-59
2021/07/21 05:03:43;;;;;;;;;;;23.40;67.30;;;;;;5171943;28;19928;-59
2021/07/21 05:06:23;;;;;;;;;;;23.40;67.50;;;;;;5166119;28;20317;-60
2021/07/21 05:08:57;;;;;;;;;;;23.40;67.50;;;;;;5154745;28;19928;-59
2021/07/21 05:11:30;;;;;;;;;;;23.40;67.60;;;;;;5200467;28;19925;-59
2021/07/21 05:14:05;;;;;;;;;;;23.40;67.70;;;;;;5190683;28;20250;-59
2021/07/21 05:16:51;;;;;;;;;;;23.50;67.80;;;;;;5164051;28;20184;-59
2021/07/21 05:19:23;;;;;;;;;;;23.50;68.00;;;;;;5162932;28;19936;-58
2021/07/21 05:21:56;;;;;;;;;;;23.50;68.10;;;;;;5185412;28;20300;-59
2021/07/21 05:24:28;;;;;;;;;;;23.40;68.10;;;;;;5169792;28;19932;-60
2021/07/21 05:27:01;;;;;;;;;;;23.50;68.30;;;;;;5169871;28;19932;-60
2021/07/21 05:29:34;;;;;;;;;;;23.50;68.40;;;;;;5176274;28;19936;-59
2021/07/21 05:32:33;;;;;;;;;;;23.50;68.50;;;;;;5167977;28;19932;-59
2021/07/21 05:35:10;;;;;;;;;;;23.50;66.80;;;;;;5164227;28;20114;-59
2021/07/21 05:38:05;;;;;;;;;;;23.40;66.20;;;;;;5183271;28;19932;-61
2021/07/21 05:40:37;;;;;;;;;;;23.40;66.20;;;;;;5113972;28;20419;-60
2021/07/21 05:43:15;;;;;;;;;;;23.30;66.60;;;;;;5166226;28;20394;-61
2021/07/21 05:46:00;;;;;;;;;;;23.30;66.80;;;;;;5134620;28;19932;-60
2021/07/21 05:48:39;;;;;;;;;;;23.30;67.70;;;;;;5119038;28;20404;-61
2021/07/21 05:51:44;;;;;;;;;;;23.40;68.20;;;;;;5142716;28;20460;-62
2021/07/21 05:54:25;;;;;;;;;;;23.40;68.50;;;;;;5177678;28;19929;-61
2021/07/21 05:56:59;;;;;;;;;;;23.50;68.70;;;;;;5137457;28;19928;-61
2021/07/21 05:59:38;;;;;;;;;;;23.50;68.30;;;;;;5155140;28;19928;-61
2021/07/21 06:02:12;;;;;;;;;;;23.50;68.40;;;;;;5159911;28;19925;-61
2021/07/21 06:04:51;;;;;;;;;;;23.60;68.30;;;;;;5153264;28;19959;-61
2021/07/21 06:07:59;;;;;;;;;;;23.60;68.20;;;;;;5155826;28;19932;-62
2021/07/21 06:10:54;;;;;;;;;;;23.70;68.20;;;;;;5150214;28;19924;-61
2021/07/21 06:13:26;;;;;;;;;;;23.60;68.20;;;;;;5131576;28;19925;-61
2021/07/21 06:16:08;;;;;;;;;;;23.60;68.20;;;;;;5151225;28;20552;-61
2021/07/21 06:18:44;;;;;;;;;;;23.70;68.20;;;;;;5155205;28;19939;-61
2021/07/21 06:21:19;;;;;;;;;;;23.70;68.10;;;;;;5164349;28;20412;-62
2021/07/21 06:24:11;;;;;;;;;;;23.70;68.20;;;;;;5164336;28;19924;-61
2021/07/21 06:26:44;;;;;;;;;;;23.80;68.30;;;;;;5152091;28;20407;-63
2021/07/21 06:29:40;;;;;;;;;;;23.70;68.10;;;;;;5166110;28;19929;-63
2021/07/21 06:32:14;;;;;;;;;;;23.70;68.00;;;;;;5169466;28;20459;-64
2021/07/21 06:34:47;;;;;;;;;;;23.70;68.10;;;;;;5191396;28;19931;-64
2021/07/21 06:37:22;;;;;;;;;;;23.70;68.30;;;;;;5181003;28;19929;-63
2021/07/21 06:39:55;;;;;;;;;;;23.70;68.40;;;;;;5177861;28;19940;-64
2021/07/21 06:42:28;;;;;;;;;;;23.70;68.10;;;;;;5165790;28;19940;-63
2021/07/21 06:45:01;;;;;;;;;;;23.80;68.30;;;;;;5165885;28;19939;-61
2021/07/21 06:47:43;;;;;;;;;;;23.80;68.30;;;;;;5162007;28;19925;-61
2021/07/21 06:50:27;;;;;;;;;;;23.80;68.30;;;;;;5164561;28;19991;-61
2021/07/21 06:53:01;;;;;;;;;;;23.80;68.40;;;;;;5185929;28;20415;-62
2021/07/21 06:56:12;;;;;;;;;;;23.80;68.20;;;;;;5065067;28;20421;-61
2021/07/21 06:58:58;;;;;;;;;;;23.80;67.90;;;;;;5067783;28;20469;-62
2021/07/21 07:01:30;;;;;;;;;;;23.90;68.00;;;;;;5126593;28;19931;-61
2021/07/21 07:04:21;;;;;;;;;;;23.90;67.70;;;;;;5165334;28;19936;-61
2021/07/21 07:07:15;;;;;;;;;;;23.90;67.80;;;;;;5157981;28;19936;-62
2021/07/21 07:10:07;;;;;;;;;;;23.90;67.90;;;;;;5172368;28;19925;-62
2021/07/21 07:12:46;;;;;;;;;;;24.00;67.90;;;;;;5175633;28;20373;-62
2021/07/21 07:15:18;;;;;;;;;;;24.00;67.90;;;;;;5177113;28;19932;-61
2021/07/21 07:17:50;;;;;;;;;;;23.90;67.40;;;;;;5171352;28;19925;-62
2021/07/21 07:20:22;;;;;;;;;;;24.00;67.10;;;;;;5188869;28;19925;-62
2021/07/21 07:22:54;;;;;;;;;;;24.00;66.70;;;;;;5178268;28;19925;-61
2021/07/21 07:25:27;;;;;;;;;;;24.00;66.60;;;;;;5177361;28;19929;-62
2021/07/21 07:27:59;;;;;;;;;;;24.00;66.60;;;;;;5174758;28;20369;-62
2021/07/21 07:30:31;;;;;;;;;;;24.10;66.50;;;;;;5182029;28;19925;-61
2021/07/21 07:33:04;;;;;;;;;;;24.10;65.80;;;;;;5176365;28;20004;-62
2021/07/21 07:35:39;;;;;;;;;;;24.10;65.80;;;;;;5170621;28;19932;-62
2021/07/21 07:38:14;;;;;;;;;;;24.10;65.60;;;;;;5169247;28;20581;-61
2021/07/21 07:40:46;;;;;;;;;;;24.10;65.10;;;;;;5172229;28;20589;-62
2021/07/21 07:43:19;;;;;;;;;;;24.10;65.10;;;;;;5178580;28;19924;-62
2021/07/21 07:45:52;;;;;;;;;;;24.10;64.70;;;;;;5165435;28;19924;-62
2021/07/21 07:48:27;;;;;;;;;;;24.10;64.80;;;;;;5187304;28;19924;-63
2021/07/21 07:50:59;;;;;;;;;;;24.10;64.00;;;;;;5185178;28;19924;-62
2021/07/21 07:53:31;;;;;;;;;;;24.20;64.00;;;;;;5171347;28;20433;-61
2021/07/21 07:56:04;;;;;;;;;;;24.20;64.00;;;;;;5172078;28;19924;-61
2021/07/21 07:58:37;;;;;;;;;;;24.20;63.70;;;;;;5177160;28;19925;-62
2021/07/21 08:01:09;;;;;;;;;;;24.20;64.00;;;;;;5174506;28;19936;-61
2021/07/21 08:03:41;;;;;;;;;;;24.30;64.60;;;;;;5173565;28;19925;-61
2021/07/21 08:06:13;;;;;;;;;;;24.30;64.50;;;;;;5168471;28;19932;-61
2021/07/21 08:08:46;;;;;;;;;;;24.30;64.50;;;;;;5161259;28;20521;-61
2021/07/21 08:11:19;;;;;;;;;;;24.30;64.50;;;;;;5157051;28;19932;-62
2021/07/21 08:13:51;;;;;;;;;;;24.30;64.70;;;;;;5154731;28;19929;-62
2021/07/21 08:16:24;;;;;;;;;;;24.30;64.80;;;;;;5136543;28;20384;-61
2021/07/21 08:18:57;;;;;;;;;;;24.40;65.10;;;;;;5152229;28;19929;-62
2021/07/21 08:21:29;;;;;;;;;;;24.40;64.70;;;;;;5170635;28;19925;-62
2021/07/21 08:24:02;;;;;;;;;;;24.30;64.50;;;;;;5161341;28;19932;-62
2021/07/21 08:26:34;;;;;;;;;;;24.40;64.30;;;;;;5156809;28;19955;-62
2021/07/21 08:29:08;;;;;;;;;;;24.40;64.40;;;;;;5177657;28;19925;-61
2021/07/21 08:31:40;;;;;;;;;;;24.40;64.50;;;;;;5163097;28;19935;-62
2021/07/21 08:34:12;;;;;;;;;;;24.40;64.50;;;;;;5170719;28;19932;-62
2021/07/21 08:36:45;;;;;;;;;;;24.40;64.40;;;;;;5163751;28;20388;-62
2021/07/21 08:39:17;;;;;;;;;;;24.40;64.40;;;;;;5172144;28;19936;-62
2021/07/21 08:41:50;;;;;;;;;;;24.40;64.40;;;;;;5140978;28;19929;-62
2021/07/21 08:44:22;;;;;;;;;;;24.40;64.30;;;;;;5176325;28;19932;-62
2021/07/21 08:46:55;;;;;;;;;;;24.40;64.00;;;;;;5173016;28;19932;-62
2021/07/21 08:49:27;;;;;;;;;;;24.50;64.10;;;;;;5168682;28;19943;-62
2021/07/21 08:52:01;;;;;;;;;;;24.50;63.80;;;;;;5166073;28;20275;-63
2021/07/21 08:54:34;;;;;;;;;;;24.60;63.70;;;;;;5170799;28;19929;-62
2021/07/21 08:57:07;;;;;;;;;;;24.60;63.70;;;;;;5176903;28;19925;-63
2021/07/21 08:59:41;;;;;;;;;;;24.60;63.90;;;;;;5163699;28;20472;-62
2021/07/21 09:02:14;;;;;;;;;;;24.60;63.30;;;;;;5174815;28;19931;-62
2021/07/21 09:04:47;;;;;;;;;;;24.60;63.50;;;;;;5134756;28;20591;-62
2021/07/21 09:07:20;;;;;;;;;;;24.60;63.50;;;;;;5151475;28;21330;-63
2021/07/21 09:10:11;;;;;;;;;;;24.60;63.50;;;;;;5160909;28;19929;-63
2021/07/21 09:12:45;;;;;;;;;;;24.60;63.80;;;;;;5165523;28;19925;-62
2021/07/21 09:15:19;;;;;;;;;;;24.60;63.80;;;;;;5169376;28;19936;-62
2021/07/21 09:18:04;;;;;;;;;;;24.70;63.50;;;;;;5176768;28;20269;-63
2021/07/21 09:20:37;;;;;;;;;;;24.60;63.20;;;;;;5180651;28;20490;-63
2021/07/21 09:23:10;;;;;;;;;;;24.70;63.20;;;;;;5175880;28;19924;-63
2021/07/21 09:25:45;;;;;;;;;;;24.70;63.30;;;;;;5194379;28;19951;-63
2021/07/21 09:28:20;;;;;;;;;;;24.70;63.60;;;;;;5178696;28;20404;-63
2021/07/21 09:30:53;;;;;;;;;;;24.70;63.60;;;;;;5183188;28;19940;-63
2021/07/21 09:33:25;;;;;;;;;;;24.70;63.40;;;;;;5176574;28;19936;-62
2021/07/21 09:35:57;;;;;;;;;;;24.70;62.70;;;;;;5176224;28;19925;-62
2021/07/21 09:38:31;;;;;;;;;;;24.80;62.20;;;;;;5170953;28;19928;-63
2021/07/21 09:41:06;;;;;;;;;;;24.70;62.30;;;;;;5134282;28;20488;-63
2021/07/21 09:43:39;;;;;;;;;;;24.70;62.80;;;;;;5164382;28;20793;-63
2021/07/21 09:46:15;;;;;;;;;;;24.80;63.00;;;;;;5161195;28;19924;-61
2021/07/21 09:48:49;;;;;;;;;;;24.80;62.80;;;;;;5160111;28;19929;-63
2021/07/21 09:51:29;;;;;;;;;;;24.80;62.70;;;;;;5152590;28;19932;-63
2021/07/21 09:54:15;;;;;;;;;;;24.70;62.90;;;;;;5165340;28;20115;-63
2021/07/21 09:56:50;;;;;;;;;;;24.80;63.20;;;;;;5167976;28;19929;-62
2021/07/21 09:59:24;;;;;;;;;;;24.70;63.30;;;;;;5175040;28;19925;-63
2021/07/21 10:01:56;;;;;;;;;;;24.70;63.30;;;;;;5179546;28;19933;-63
2021/07/21 10:04:33;;;;;;;;;;;24.70;62.80;;;;;;5165912;28;20561;-63
2021/07/21 10:07:32;;;;;;;;;;;24.80;63.50;;;;;;5174215;28;19929;-63
2021/07/21 10:10:11;;;;;;;;;;;24.80;63.30;;;;;;5172964;28;19929;-62
2021/07/21 10:12:43;;;;;;;;;;;24.90;63.00;;;;;;5175913;28;19924;-61
2021/07/21 10:15:19;;;;;;;;;;;25.00;63.50;;;;;;5160881;28;19925;-63
2021/07/21 10:18:04;;;;;;;;;;;25.00;63.30;;;;;;5171768;28;19925;-62
2021/07/21 10:20:37;;;;;;;;;;;25.10;63.30;;;;;;5167754;28;19962;-62
2021/07/21 10:23:10;;;;;;;;;;;25.10;62.80;;;;;;5171887;28;20396;-63
2021/07/21 10:25:43;;;;;;;;;;;25.10;63.00;;;;;;4481248;28;10000124;-63
2021/07/21 10:28:16;;;;;;;;;;;25.20;63.30;;;;;;4811858;28;10000418;-63
2021/07/21 10:30:49;;;;;;;;;;;25.20;63.50;;;;;;5173269;28;19929;-63
2021/07/21 10:33:21;;;;;;;;;;;25.30;63.60;;;;;;5172439;28;19925;-63
2021/07/21 10:35:54;;;;;;;;;;;25.30;63.60;;;;;;5173257;28;19935;-62
2021/07/21 10:38:26;;;;;;;;;;;25.40;63.70;;;;;;5160457;28;19928;-62
2021/07/21 10:40:58;;;;;;;;;;;25.40;63.70;;;;;;5163487;28;19929;-63
2021/07/21 10:43:31;;;;;;;;;;;25.40;63.10;;;;;;5173678;28;19925;-62
2021/07/21 10:46:04;;;;;;;;;;;25.40;62.80;;;;;;5163733;28;19936;-62
2021/07/21 10:48:45;;;;;;;;;;;25.40;63.00;;;;;;5181587;28;20500;-62
2021/07/21 10:51:35;;;;;;;;;;;25.40;63.20;;;;;;5158082;28;19929;-63
2021/07/21 10:54:23;;;;;;;;;;;25.40;63.30;;;;;;5161710;28;19948;-62
2021/07/21 11:00:07;;;;;;;;;;;25.50;63.30;;;;;;5173366;28;19925;-63
2021/07/21 11:02:39;;;;;;;;;;;25.50;63.20;;;;;;5168504;28;19929;-63
2021/07/21 11:05:30;;;;;;;;;;;25.50;63.20;;;;;;5175474;28;19931;-62
2021/07/21 11:08:04;;;;;;;;;;;25.50;63.20;;;;;;5154708;28;20385;-62
2021/07/21 11:10:40;;;;;;;;;;;25.50;63.10;;;;;;5155531;28;20507;-62
2021/07/21 11:13:28;;;;;;;;;;;25.50;63.30;;;;;;5142636;28;19925;-61
2021/07/21 11:16:01;;;;;;;;;;;25.50;63.30;;;;;;5173666;28;19928;-62
2021/07/21 11:18:34;;;;;;;;;;;25.50;63.40;;;;;;5170996;28;20104;-62
2021/07/21 11:21:14;;;;;;;;;;;25.50;63.40;;;;;;5173688;28;19929;-62
2021/07/21 11:23:52;;;;;;;;;;;25.50;63.40;;;;;;5147963;28;25979;-63
2021/07/21 11:26:34;;;;;;;;;;;25.60;63.60;;;;;;5170930;28;19925;-62
2021/07/21 11:29:25;;;;;;;;;;;25.60;62.90;;;;;;5161975;28;19932;-62
2021/07/21 11:31:58;;;;;;;;;;;25.60;62.40;;;;;;5171355;28;19932;-63
2021/07/21 11:34:34;;;;;;;;;;;25.70;62.50;;;;;;5164052;28;19929;-63
2021/07/21 11:37:18;;;;;;;;;;;25.60;62.70;;;;;;5163663;28;19925;-62
2021/07/21 11:39:51;;;;;;;;;;;25.50;62.30;;;;;;5156439;28;19924;-62
2021/07/21 11:42:23;;;;;;;;;;;25.50;62.80;;;;;;5162456;28;25936;-62
2021/07/21 11:45:02;;;;;;;;;;;25.60;62.80;;;;;;5164715;28;19924;-62
2021/07/21 11:47:45;;;;;;;;;;;25.60;62.90;;;;;;5136842;28;20412;-62
2021/07/21 11:50:22;;;;;;;;;;;25.70;62.90;;;;;;5166805;28;19925;-62
2021/07/21 11:52:55;;;;;;;;;;;25.70;63.00;;;;;;5174870;28;19932;-62
2021/07/21 11:55:30;;;;;;;;;;;25.70;63.00;;;;;;5157514;28;19924;-62
2021/07/21 11:58:10;;;;;;;;;;;25.80;63.10;;;;;;5164065;28;19929;-62
2021/07/21 12:00:49;;;;;;;;;;;25.80;63.30;;;;;;5157244;28;19928;-62
2021/07/21 12:03:25;;;;;;;;;;;25.80;63.10;;;;;;5151979;28;19936;-63
2021/07/21 12:05:57;;;;;;;;;;;25.80;63.10;;;;;;5145633;28;19929;-62
2021/07/21 12:08:30;;;;;;;;;;;25.80;63.10;;;;;;5153043;28;19929;-62
2021/07/21 12:11:09;;;;;;;;;;;25.90;63.00;;;;;;5157320;28;19932;-62
2021/07/21 12:13:42;;;;;;;;;;;26.00;63.10;;;;;;5147713;28;19928;-63
2021/07/21 12:16:15;;;;;;;;;;;26.00;63.10;;;;;;5163646;28;19924;-62
2021/07/21 12:18:54;;;;;;;;;;;26.00;63.10;;;;;;5154244;28;19936;-62
2021/07/21 12:21:28;;;;;;;;;;;26.00;63.00;;;;;;5141266;28;19929;-62
2021/07/21 12:24:00;;;;;;;;;;;26.00;63.10;;;;;;5165436;28;19931;-62
2021/07/21 12:26:43;;;;;;;;;;;26.10;63.10;;;;;;5161832;28;19929;-62
2021/07/21 12:29:24;;;;;;;;;;;26.10;63.10;;;;;;5150635;28;19952;-62
2021/07/21 12:32:13;;;;;;;;;;;26.10;63.00;;;;;;5132526;28;19925;-62
2021/07/21 12:34:52;;;;;;;;;;;26.10;62.90;;;;;;5167109;28;19925;-62
2021/07/21 12:37:26;;;;;;;;;;;26.20;63.00;;;;;;5152441;28;20369;-62
2021/07/21 12:39:58;;;;;;;;;;;26.20;63.10;;;;;;5155484;28;20169;-62
2021/07/21 12:42:31;;;;;;;;;;;26.20;63.00;;;;;;5155722;28;20304;-62
2021/07/21 12:45:05;;;;;;;;;;;26.20;63.00;;;;;;4451315;28;9999934;-63
2021/07/21 12:47:39;;;;;;;;;;;26.20;63.00;;;;;;5159828;28;19924;-62
2021/07/21 12:50:13;;;;;;;;;;;26.30;62.40;;;;;;5154241;28;19925;-62
2021/07/21 12:52:46;;;;;;;;;;;26.20;62.10;;;;;;5153584;28;21385;-63
2021/07/21 12:55:37;;;;;;;;;;;26.20;62.00;;;;;;5154023;28;19929;-62
2021/07/21 12:58:11;;;;;;;;;;;26.20;62.00;;;;;;5158220;28;19936;-62
2021/07/21 13:00:45;;;;;;;;;;;26.20;61.90;;;;;;5144487;28;19984;-62
2021/07/21 13:03:21;;;;;;;;;;;26.20;61.60;;;;;;5161342;28;19925;-63
2021/07/21 13:05:56;;;;;;;;;;;26.20;61.90;;;;;;5162380;28;19925;-62
2021/07/21 13:08:28;;;;;;;;;;;26.20;61.20;;;;;;5161355;28;20300;-62
2021/07/21 13:11:10;;;;;;;;;;;26.20;60.60;;;;;;5156734;28;20475;-62
2021/07/21 13:13:51;;;;;;;;;;;26.10;61.10;;;;;;5145531;28;19948;-63
2021/07/21 13:16:28;;;;;;;;;;;26.10;61.10;;;;;;5174641;28;20321;-63
2021/07/21 13:19:01;;;;;;;;;;;26.10;60.80;;;;;;5147627;28;19955;-62
2021/07/21 13:21:37;;;;;;;;;;;26.10;61.10;;;;;;5157183;28;20474;-63
2021/07/21 13:24:13;;;;;;;;;;;26.10;61.30;;;;;;5130599;28;20465;-62
2021/07/21 13:26:58;;;;;;;;;;;26.10;61.60;;;;;;5148525;28;19925;-62
2021/07/21 13:29:31;;;;;;;;;;;26.10;61.80;;;;;;5166133;28;19929;-63
2021/07/21 13:32:04;;;;;;;;;;;26.10;61.90;;;;;;5133759;28;19935;-62
2021/07/21 13:34:36;;;;;;;;;;;26.20;62.10;;;;;;5166101;28;20590;-62
2021/07/21 13:37:10;;;;;;;;;;;26.20;62.20;;;;;;5148603;28;19925;-62
2021/07/21 13:39:44;;;;;;;;;;;26.20;62.20;;;;;;5159734;28;19936;-62
2021/07/21 13:42:20;;;;;;;;;;;26.30;62.30;;;;;;5158266;28;19928;-63
2021/07/21 13:44:59;;;;;;;;;;;26.30;62.40;;;;;;5161723;28;19936;-62
2021/07/21 13:47:33;;;;;;;;;;;26.30;62.30;;;;;;5149299;28;19936;-62
2021/07/21 13:50:07;;;;;;;;;;;26.30;62.40;;;;;;5140418;28;19924;-62
2021/07/21 13:52:41;;;;;;;;;;;26.30;62.40;;;;;;5175333;28;19936;-63
2021/07/21 13:55:13;;;;;;;;;;;26.30;62.50;;;;;;5127176;28;20392;-63
2021/07/21 13:57:45;;;;;;;;;;;26.40;62.60;;;;;;5132283;28;19925;-63
2021/07/21 14:00:18;;;;;;;;;;;26.40;62.60;;;;;;5152172;28;19971;-63
2021/07/21 14:02:50;;;;;;;;;;;26.40;62.60;;;;;;5164807;28;19932;-63
2021/07/21 14:05:22;;;;;;;;;;;26.40;62.50;;;;;;5166587;28;19925;-63
2021/07/21 14:07:54;;;;;;;;;;;26.40;61.60;;;;;;5184379;28;19949;-63
2021/07/21 14:10:27;;;;;;;;;;;26.40;61.20;;;;;;5141247;28;20469;-62
2021/07/21 14:12:59;;;;;;;;;;;26.40;60.90;;;;;;5153156;28;19931;-62
2021/07/21 14:15:33;;;;;;;;;;;26.40;61.60;;;;;;5131306;28;19929;-63
2021/07/21 14:18:05;;;;;;;;;;;26.40;61.70;;;;;;5138400;28;19929;-63
2021/07/21 14:20:38;;;;;;;;;;;26.30;61.80;;;;;;5130581;28;20305;-64
2021/07/21 14:23:10;;;;;;;;;;;26.30;62.00;;;;;;5148145;28;19936;-63
2021/07/21 14:25:44;;;;;;;;;;;26.40;62.00;;;;;;5117241;28;20503;-63
2021/07/21 14:28:24;;;;;;;;;;;26.40;62.30;;;;;;5159480;28;19961;-63
2021/07/21 14:30:56;;;;;;;;;;;26.40;62.40;;;;;;5138340;28;20344;-63
2021/07/21 14:33:29;;;;;;;;;;;26.40;62.40;;;;;;5140651;28;19924;-64
2021/07/21 14:36:01;;;;;;;;;;;26.40;62.50;;;;;;5136692;28;19928;-63
2021/07/21 14:38:34;;;;;;;;;;;26.40;62.30;;;;;;5151313;28;19931;-63
2021/07/21 14:41:07;;;;;;;;;;;26.40;61.70;;;;;;5136491;28;19925;-63
2021/07/21 14:43:39;;;;;;;;;;;26.40;61.30;;;;;;5137242;28;19935;-63
2021/07/21 14:46:11;;;;;;;;;;;26.50;61.10;;;;;;4464308;28;10000791;-63
2021/07/21 14:48:43;;;;;;;;;;;26.40;60.60;;;;;;5148481;28;20836;-63
2021/07/21 14:51:16;;;;;;;;;;;26.40;60.50;;;;;;5153134;28;19933;-63
2021/07/21 14:53:48;;;;;;;;;;;26.40;60.60;;;;;;5159838;28;19960;-63
2021/07/21 14:56:20;;;;;;;;;;;26.40;60.60;;;;;;5160371;28;20397;-63
2021/07/21 14:58:53;;;;;;;;;;;26.40;60.60;;;;;;5138938;28;19928;-63
2021/07/21 15:01:25;;;;;;;;;;;26.30;60.30;;;;;;5163390;28;19929;-63
2021/07/21 15:03:57;;;;;;;;;;;26.30;60.60;;;;;;5167802;28;20801;-64
2021/07/21 15:06:31;;;;;;;;;;;26.30;60.60;;;;;;5156541;28;19931;-63
2021/07/21 15:09:07;;;;;;;;;;;26.20;60.50;;;;;;5165854;28;19987;-63
2021/07/21 15:11:40;;;;;;;;;;;26.20;60.70;;;;;;5158128;28;20342;-63
2021/07/21 15:14:14;;;;;;;;;;;26.20;60.50;;;;;;5161849;28;19929;-63
2021/07/21 15:16:46;;;;;;;;;;;26.20;60.60;;;;;;5166474;28;20260;-63
2021/07/21 15:19:19;;;;;;;;;;;26.10;60.60;;;;;;5153264;28;20557;-60